createdAt,value
2023-02-26T00:00:21.365Z,1.70
2023-02-26T00:03:23.879Z,1.60
2023-02-26T00:06:27.773Z,1.66
2023-02-26T00:09:30.710Z,1.65
2023-02-26T00:12:33.531Z,1.77
2023-02-26T00:15:36.225Z,1.84
2023-02-26T00:18:39.054Z,1.90
2023-02-26T00:21:41.734Z,1.91
2023-02-26T00:24:44.117Z,1.91
2023-02-26T00:27:47.980Z,1.73
2023-02-26T00:30:50.605Z,1.62
2023-02-26T00:33:55.291Z,1.34
2023-02-26T00:37:07.141Z,1.43
2023-02-26T00:40:43.587Z,1.56
2023-02-26T00:43:46.844Z,1.33
2023-02-26T00:46:56.220Z,1.31
2023-02-26T00:50:18.621Z,1.23
2023-02-26T00:53:33.607Z,1.36
2023-02-26T00:56:35.997Z,1.29
2023-02-26T00:59:38.515Z,0.95
2023-02-26T01:02:41.513Z,1.42
2023-02-26T01:05:44.590Z,1.19
2023-02-26T01:08:59.266Z,1.53
2023-02-26T01:12:05.778Z,1.28
2023-02-26T01:15:09.386Z,1.31
2023-02-26T01:18:21.041Z,1.38
2023-02-26T01:21:31.978Z,1.13
2023-02-26T01:24:36.499Z,1.21
2023-02-26T01:27:39.330Z,1.30
2023-02-26T01:30:42.700Z,1.07
2023-02-26T01:33:51.967Z,1.19
2023-02-26T01:37:04.826Z,1.51
2023-02-26T01:40:10.239Z,1.59
2023-02-26T01:43:37.956Z,1.22
2023-02-26T01:46:58.661Z,1.30
2023-02-26T01:50:25.796Z,1.40
2023-02-26T01:53:28.277Z,1.46
2023-02-26T01:56:30.959Z,1.40
2023-02-26T01:59:37.091Z,1.34
2023-02-26T02:02:40.300Z,1.40
2023-02-26T02:06:06.099Z,1.08
2023-02-26T02:09:10.299Z,1.27
2023-02-26T02:12:35.805Z,1.30
2023-02-26T02:15:51.152Z,1.29
2023-02-26T02:19:12.165Z,1.07
2023-02-26T02:22:47.361Z,0.94
2023-02-26T02:26:08.087Z,0.82
2023-02-26T02:29:33.509Z,0.96
2023-02-26T02:32:44.659Z,0.75
2023-02-26T02:36:09.351Z,0.87
2023-02-26T02:39:28.098Z,1.03
2023-02-26T02:42:36.100Z,1.13
2023-02-26T02:45:51.366Z,1.11
2023-02-26T02:49:11.290Z,1.04
2023-02-26T02:52:21.295Z,1.19
2023-02-26T02:55:34.949Z,1.36
2023-02-26T02:58:43.648Z,1.66
2023-02-26T03:01:50.193Z,1.51
2023-02-26T03:04:52.692Z,1.46
2023-02-26T03:08:06.439Z,1.50
2023-02-26T03:11:09.595Z,1.20
2023-02-26T03:14:14.009Z,1.15
2023-02-26T03:17:48.682Z,1.26
2023-02-26T03:21:35.933Z,1.28
2023-02-26T03:24:57.330Z,1.23
2023-02-26T03:28:27.311Z,1.31
2023-02-26T03:31:52.742Z,1.06
2023-02-26T03:35:15.008Z,1.40
2023-02-26T03:38:54.742Z,1.34
2023-02-26T03:42:09.888Z,1.27
2023-02-26T03:45:31.492Z,1.27
2023-02-26T03:48:36.005Z,1.38
2023-02-26T03:51:39.874Z,1.41
2023-02-26T03:55:34.930Z,1.35
2023-02-26T03:59:03.885Z,1.32
2023-02-26T04:02:59.230Z,1.37
2023-02-26T04:06:03.662Z,0.99
2023-02-26T04:09:06.742Z,1.28
2023-02-26T04:12:11.758Z,1.12
2023-02-26T04:15:17.973Z,1.17
2023-02-26T04:18:20.453Z,1.47
2023-02-26T04:21:23.825Z,1.09
2023-02-26T04:24:26.194Z,1.24
2023-02-26T04:27:29.203Z,1.15
2023-02-26T04:30:31.658Z,1.18
2023-02-26T04:33:35.200Z,1.49
2023-02-26T04:36:37.629Z,1.35
2023-02-26T04:39:40.334Z,1.54
2023-02-26T04:42:43.242Z,1.56
2023-02-26T04:45:47.751Z,1.59
2023-02-26T04:48:50.333Z,1.59
2023-02-26T04:51:52.836Z,1.57
2023-02-26T04:54:55.336Z,1.90
2023-02-26T04:57:57.711Z,1.88
2023-02-26T05:01:01.626Z,1.86
2023-02-26T05:04:04.421Z,1.80
2023-02-26T05:07:07.231Z,1.78
2023-02-26T05:10:10.855Z,1.73
2023-02-26T05:13:14.095Z,1.75
2023-02-26T05:16:16.519Z,2.05
2023-02-26T05:19:19.350Z,1.97
2023-02-26T05:22:24.673Z,2.00
2023-02-26T05:25:27.061Z,2.19
2023-02-26T05:28:30.061Z,2.13
2023-02-26T05:31:32.804Z,2.24
2023-02-26T05:34:35.415Z,2.19
2023-02-26T05:37:38.585Z,2.35
2023-02-26T05:40:41.670Z,2.17
2023-02-26T05:43:44.324Z,2.09
2023-02-26T05:46:46.824Z,2.16
2023-02-26T05:49:50.020Z,2.13
2023-02-26T05:52:52.414Z,2.26
2023-02-26T05:55:54.787Z,2.13
2023-02-26T05:58:57.555Z,2.17
2023-02-26T06:02:00.011Z,2.23
2023-02-26T06:05:02.585Z,2.41
2023-02-26T06:08:06.117Z,2.45
2023-02-26T06:11:08.558Z,2.35
2023-02-26T06:14:10.963Z,2.49
2023-02-26T06:17:13.367Z,2.53
2023-02-26T06:20:16.035Z,2.44
2023-02-26T06:23:18.409Z,2.53
2023-02-26T06:26:23.451Z,2.67
2023-02-26T06:29:26.306Z,2.58
2023-02-26T06:32:30.688Z,2.70
2023-02-26T06:35:33.218Z,2.64
2023-02-26T06:38:35.920Z,2.35
2023-02-26T06:41:38.639Z,2.70
2023-02-26T06:44:41.036Z,2.73
2023-02-26T06:47:43.401Z,2.55
2023-02-26T06:50:45.830Z,2.60
2023-02-26T06:53:48.164Z,2.72
2023-02-26T06:56:50.631Z,2.98
2023-02-26T06:59:53.079Z,3.13
2023-02-26T07:02:55.590Z,3.17
2023-02-26T07:06:06.423Z,3.19
2023-02-26T07:09:16.768Z,3.17
2023-02-26T07:12:19.246Z,3.31
2023-02-26T07:15:21.590Z,3.11
2023-02-26T07:18:24.251Z,3.12
2023-02-26T07:21:26.745Z,3.32
2023-02-26T07:24:29.237Z,3.11
2023-02-26T07:27:33.429Z,3.34
2023-02-26T07:30:35.883Z,3.50
2023-02-26T07:33:39.684Z,3.53
2023-02-26T07:36:42.466Z,3.47
2023-02-26T07:39:45.550Z,3.46
2023-02-26T07:42:48.456Z,3.52
2023-02-26T07:45:52.348Z,3.66
2023-02-26T07:48:55.088Z,3.77
2023-02-26T07:51:57.507Z,4.04
2023-02-26T07:55:00.005Z,3.83
2023-02-26T07:58:02.422Z,3.88
2023-02-26T08:01:04.941Z,3.76
2023-02-26T08:04:07.426Z,4.17
2023-02-26T08:07:10.487Z,4.04
2023-02-26T08:10:13.023Z,4.11
2023-02-26T08:13:16.906Z,4.27
2023-02-26T08:16:19.791Z,4.46
2023-02-26T08:19:22.143Z,4.44
2023-02-26T08:22:24.551Z,4.49
2023-02-26T08:25:27.034Z,4.29
2023-02-26T08:28:29.931Z,4.44
2023-02-26T08:31:34.646Z,4.78
2023-02-26T08:34:37.287Z,4.67
2023-02-26T08:37:39.691Z,4.82
2023-02-26T08:40:42.400Z,4.84
2023-02-26T08:43:44.810Z,5.09
2023-02-26T08:46:47.238Z,4.65
2023-02-26T08:49:49.602Z,4.82
2023-02-26T08:52:52.206Z,5.08
2023-02-26T08:55:54.691Z,5.17
2023-02-26T08:58:57.130Z,5.21
2023-02-26T09:01:59.731Z,5.40
2023-02-26T09:05:02.169Z,5.34
2023-02-26T09:08:05.157Z,5.18
2023-02-26T09:11:07.799Z,5.63
2023-02-26T09:14:10.218Z,5.72
2023-02-26T09:17:12.546Z,5.90
2023-02-26T09:20:15.444Z,5.88
2023-02-26T09:23:17.959Z,5.93
2023-02-26T09:26:20.511Z,6.35
2023-02-26T09:29:22.851Z,6.26
2023-02-26T09:32:26.903Z,6.22
2023-02-26T09:35:29.498Z,6.10
2023-02-26T09:38:32.174Z,6.25
2023-02-26T09:41:40.028Z,6.20
2023-02-26T09:44:42.670Z,6.40
2023-02-26T09:47:51.851Z,6.22
2023-02-26T09:50:57.640Z,6.35
2023-02-26T09:54:04.722Z,6.47
2023-02-26T09:57:13.936Z,6.69
2023-02-26T10:00:24.838Z,6.99
2023-02-26T10:04:15.933Z,7.25
2023-02-26T10:07:37.640Z,7.19
2023-02-26T10:11:06.934Z,7.26
2023-02-26T10:14:22.633Z,7.30
2023-02-26T10:17:54.193Z,7.23
2023-02-26T10:21:03.969Z,7.47
2023-02-26T10:24:33.662Z,7.81
2023-02-26T10:27:56.861Z,8.33
2023-02-26T10:31:05.898Z,8.40
2023-02-26T10:34:17.297Z,8.35
2023-02-26T10:37:52.264Z,8.25
2023-02-26T10:41:02.207Z,7.64
2023-02-26T10:44:16.054Z,7.53
2023-02-26T10:47:44.595Z,7.16
2023-02-26T10:50:52.961Z,7.07
2023-02-26T10:54:00.887Z,7.11
2023-02-26T10:57:04.178Z,6.99
2023-02-26T11:00:11.265Z,7.38
2023-02-26T11:03:36.846Z,7.25
2023-02-26T11:06:47.670Z,7.13
2023-02-26T11:09:50.212Z,7.00
2023-02-26T11:12:53.784Z,7.01
2023-02-26T11:15:59.033Z,7.20
2023-02-26T11:19:01.978Z,7.07
2023-02-26T11:22:07.914Z,7.55
2023-02-26T11:25:16.974Z,8.03
2023-02-26T11:28:31.338Z,8.04
2023-02-26T11:31:34.169Z,8.05
2023-02-26T11:34:38.446Z,7.77
2023-02-26T11:37:46.153Z,7.66
2023-02-26T11:40:54.146Z,7.62
2023-02-26T11:44:08.874Z,7.26
2023-02-26T11:47:17.488Z,7.65
2023-02-26T11:50:23.251Z,7.45
2023-02-26T11:53:25.960Z,7.61
2023-02-26T11:56:42.795Z,6.96
2023-02-26T11:59:52.271Z,6.82
2023-02-26T12:03:01.157Z,7.06
2023-02-26T12:06:04.537Z,6.97
2023-02-26T12:09:13.586Z,7.22
2023-02-26T12:12:24.656Z,7.34
2023-02-26T12:15:40.777Z,7.13
2023-02-26T12:19:35.484Z,7.34
2023-02-26T12:22:54.828Z,7.21
2023-02-26T12:26:17.642Z,7.16
2023-02-26T12:29:27.802Z,6.72
2023-02-26T12:32:53.495Z,6.86
2023-02-26T12:36:11.729Z,6.55
2023-02-26T12:39:20.581Z,6.58
2023-02-26T12:42:44.451Z,6.68
2023-02-26T12:45:47.526Z,6.56
2023-02-26T12:49:31.499Z,6.47
2023-02-26T12:52:57.226Z,6.34
2023-02-26T12:56:18.040Z,6.46
2023-02-26T12:59:38.614Z,6.22
2023-02-26T13:02:59.537Z,6.12
2023-02-26T13:06:13.997Z,6.04
2023-02-26T13:09:55.794Z,5.89
2023-02-26T13:13:13.080Z,5.71
2023-02-26T13:16:24.437Z,5.67
2023-02-26T13:19:32.609Z,5.64
2023-02-26T13:23:03.571Z,5.70
2023-02-26T13:26:11.565Z,5.53
2023-02-26T13:29:27.051Z,5.60
2023-02-26T13:32:32.148Z,5.53
2023-02-26T13:35:39.631Z,5.33
2023-02-26T13:38:46.712Z,5.52
2023-02-26T13:41:57.961Z,5.44
2023-02-26T13:45:20.610Z,5.08
2023-02-26T13:48:30.493Z,5.31
2023-02-26T13:51:38.950Z,5.21
2023-02-26T13:54:45.823Z,5.04
2023-02-26T13:57:52.243Z,5.27
2023-02-26T14:01:19.205Z,5.23
2023-02-26T14:04:24.952Z,5.21
2023-02-26T14:07:54.053Z,4.98
2023-02-26T14:11:02.290Z,5.10
2023-02-26T14:14:18.648Z,5.15
2023-02-26T14:17:30.721Z,5.15
2023-02-26T14:20:35.894Z,4.96
2023-02-26T14:23:40.177Z,4.97
2023-02-26T14:26:47.354Z,4.68
2023-02-26T14:29:55.863Z,4.82
2023-02-26T14:33:01.477Z,4.68
2023-02-26T14:36:08.514Z,4.50
2023-02-26T14:39:23.859Z,4.23
2023-02-26T14:42:32.232Z,4.42
2023-02-26T14:45:40.668Z,4.34
2023-02-26T14:48:43.719Z,4.31
2023-02-26T14:52:23.026Z,4.33
2023-02-26T14:55:43.855Z,4.37
2023-02-26T14:59:05.414Z,4.28
2023-02-26T15:02:18.804Z,4.34
2023-02-26T15:05:46.192Z,4.35
2023-02-26T15:09:07.186Z,4.25
2023-02-26T15:12:31.831Z,4.23
2023-02-26T15:15:52.483Z,4.14
2023-02-26T15:19:03.875Z,4.14
2023-02-26T15:22:33.251Z,4.06
2023-02-26T15:25:39.744Z,4.05
2023-02-26T15:28:43.232Z,3.83
2023-02-26T15:31:58.498Z,3.94
2023-02-26T15:35:15.793Z,3.77
2023-02-26T15:38:19.812Z,3.73
2023-02-26T15:41:25.427Z,3.88
2023-02-26T15:44:33.016Z,3.73
2023-02-26T15:47:35.788Z,3.82
2023-02-26T15:50:42.143Z,3.81
2023-02-26T15:53:49.364Z,3.62
2023-02-26T15:56:52.196Z,3.63
2023-02-26T16:00:02.381Z,3.44
2023-02-26T16:03:15.149Z,3.27
2023-02-26T16:06:29.918Z,3.48
2023-02-26T16:09:38.578Z,3.60
2023-02-26T16:12:49.186Z,3.30
2023-02-26T16:15:52.089Z,3.45
2023-02-26T16:18:56.384Z,3.38
2023-02-26T16:22:01.857Z,3.35
2023-02-26T16:25:15.527Z,3.40
2023-02-26T16:28:29.250Z,3.30
2023-02-26T16:31:37.117Z,3.35
2023-02-26T16:34:51.176Z,3.42
2023-02-26T16:37:55.214Z,3.31
2023-02-26T16:41:08.436Z,3.27
2023-02-26T16:44:29.498Z,3.30
2023-02-26T16:47:32.228Z,3.03
2023-02-26T16:50:36.784Z,3.21
2023-02-26T16:53:47.536Z,3.19
2023-02-26T16:57:04.279Z,3.08
2023-02-26T17:00:17.665Z,3.22
2023-02-26T17:03:24.544Z,2.98
2023-02-26T17:06:31.225Z,2.73
2023-02-26T17:09:40.344Z,2.80
2023-02-26T17:12:46.335Z,2.93
2023-02-26T17:15:50.646Z,2.94
2023-02-26T17:18:54.111Z,2.87
2023-02-26T17:21:58.948Z,2.78
2023-02-26T17:25:01.883Z,2.67
2023-02-26T17:28:05.548Z,2.79
2023-02-26T17:31:08.561Z,2.65
2023-02-26T17:34:12.830Z,2.36
2023-02-26T17:37:16.564Z,2.61
2023-02-26T17:40:24.681Z,2.54
2023-02-26T17:43:28.124Z,2.59
2023-02-26T17:46:32.283Z,2.52
2023-02-26T17:49:36.042Z,2.53
2023-02-26T17:52:38.885Z,2.33
2023-02-26T17:55:41.848Z,2.49
2023-02-26T17:58:45.625Z,2.28
2023-02-26T18:01:49.266Z,2.47
2023-02-26T18:04:52.135Z,2.33
2023-02-26T18:07:54.876Z,2.15
2023-02-26T18:10:59.264Z,2.35
2023-02-26T18:14:02.276Z,2.27
2023-02-26T18:17:04.982Z,2.33
2023-02-26T18:20:15.437Z,2.33
2023-02-26T18:23:19.493Z,2.17
2023-02-26T18:26:25.536Z,2.12
2023-02-26T18:29:28.291Z,2.31
2023-02-26T18:32:30.857Z,2.30
2023-02-26T18:35:34.242Z,2.08
2023-02-26T18:38:36.946Z,2.06
2023-02-26T18:41:39.597Z,2.06
2023-02-26T18:44:42.210Z,2.17
2023-02-26T18:47:44.835Z,2.20
2023-02-26T18:50:49.019Z,2.17
2023-02-26T18:53:51.813Z,2.10
2023-02-26T18:56:54.278Z,2.09
2023-02-26T18:59:57.045Z,1.91
2023-02-26T19:02:59.694Z,2.08
2023-02-26T19:06:08.777Z,1.86
2023-02-26T19:09:11.476Z,1.98
2023-02-26T19:12:18.853Z,1.91
2023-02-26T19:15:21.769Z,1.77
2023-02-26T19:18:24.802Z,1.88
2023-02-26T19:21:28.263Z,1.85
2023-02-26T19:24:32.319Z,1.87
2023-02-26T19:27:35.789Z,1.64
2023-02-26T19:30:39.813Z,1.59
2023-02-26T19:33:42.499Z,1.62
2023-02-26T19:36:48.269Z,1.62
2023-02-26T19:39:51.186Z,1.59
2023-02-26T19:42:54.953Z,1.55
2023-02-26T19:45:57.774Z,1.59
2023-02-26T19:49:00.562Z,1.39
2023-02-26T19:52:03.374Z,1.52
2023-02-26T19:55:08.129Z,1.45
2023-02-26T19:58:10.825Z,1.42
2023-02-26T20:01:13.394Z,1.29
2023-02-26T20:04:17.002Z,1.20
2023-02-26T20:07:19.620Z,1.05
2023-02-26T20:10:24.329Z,1.21
2023-02-26T20:13:29.884Z,1.03
2023-02-26T20:16:32.529Z,1.15
2023-02-26T20:19:35.674Z,0.91
2023-02-26T20:22:38.491Z,0.86
2023-02-26T20:25:43.634Z,0.89
2023-02-26T20:28:46.170Z,0.80
2023-02-26T20:31:49.944Z,0.87
2023-02-26T20:34:52.851Z,0.76
2023-02-26T20:37:55.542Z,0.90
2023-02-26T20:40:59.754Z,0.84
2023-02-26T20:44:02.448Z,0.89
2023-02-26T20:47:05.221Z,0.78
2023-02-26T20:50:09.667Z,0.93
2023-02-26T20:53:13.347Z,0.63
2023-02-26T20:56:17.800Z,0.77
2023-02-26T20:59:20.540Z,0.65
2023-02-26T21:02:23.195Z,0.82
2023-02-26T21:05:25.937Z,0.73
2023-02-26T21:08:28.737Z,0.63
2023-02-26T21:11:32.553Z,0.67
2023-02-26T21:14:36.526Z,0.65
2023-02-26T21:17:41.048Z,0.64
2023-02-26T21:20:43.571Z,0.41
2023-02-26T21:23:46.343Z,0.40
2023-02-26T21:26:49.190Z,0.59
2023-02-26T21:29:51.821Z,0.24
2023-02-26T21:32:56.008Z,0.54
2023-02-26T21:35:58.694Z,0.47
2023-02-26T21:39:01.352Z,0.45
2023-02-26T21:42:04.424Z,0.42
2023-02-26T21:45:08.151Z,0.40
2023-02-26T21:48:10.745Z,0.30
2023-02-26T21:51:14.898Z,0.10
2023-02-26T21:54:17.828Z,0.22
2023-02-26T21:57:20.193Z,0.12
2023-02-26T22:00:23.737Z,0.19
2023-02-26T22:03:26.181Z,0.40
2023-02-26T22:06:28.751Z,0.34
2023-02-26T22:09:31.482Z,0.34
2023-02-26T22:12:35.207Z,0.35
2023-02-26T22:15:38.067Z,0.34
2023-02-26T22:18:40.838Z,0.14
2023-02-26T22:21:43.366Z,0.16
2023-02-26T22:24:45.809Z,0.35
2023-02-26T22:27:48.190Z,0.11
2023-02-26T22:30:51.849Z,0.39
2023-02-26T22:33:54.451Z,0.40
2023-02-26T22:36:56.849Z,0.22
2023-02-26T22:39:59.350Z,0.19
2023-02-26T22:43:01.799Z,0.27
2023-02-26T22:46:04.865Z,0.41
2023-02-26T22:49:07.307Z,0.25
2023-02-26T22:52:10.648Z,0.07
2023-02-26T22:55:13.508Z,0.40
2023-02-26T22:58:15.884Z,0.21
2023-02-26T23:01:19.282Z,0.24
2023-02-26T23:04:21.911Z,0.44
2023-02-26T23:07:24.315Z,0.44
2023-02-26T23:10:26.758Z,0.28
2023-02-26T23:13:30.853Z,0.39
2023-02-26T23:16:33.306Z,0.45
2023-02-26T23:19:36.095Z,0.45
2023-02-26T23:22:38.772Z,0.33
2023-02-26T23:25:42.886Z,0.53
2023-02-26T23:28:45.633Z,0.43
2023-02-26T23:31:48.272Z,0.54
2023-02-26T23:34:50.831Z,0.55
2023-02-26T23:37:53.220Z,0.53
2023-02-26T23:40:56.801Z,0.48
2023-02-26T23:43:59.297Z,0.14
2023-02-26T23:47:01.708Z,0.10
2023-02-26T23:50:06.392Z,0.41
2023-02-26T23:53:09.134Z,0.20
2023-02-26T23:56:11.613Z,0.41
2023-02-26T23:59:14.226Z,0.39
